Terminal Aerodrome Forecast
Issued by NWS Duluth, MN

Home | Current Version | Previous Version | Text Only | Print | Product List | Glossary On
Versions: 1 2 3 4 5 6 7 8 9 10 11 12 13 14 15 16 17 18 19 20 21
000
FTUS43 KDLH 172200 AAA
TAFINL
TAF AMD
KINL 172235Z 1723/1818 30018G30KT P6SM SKC
     FM180100 35008KT P6SM SKC
     FM180300 VRB04KT P6SM SKC
     FM181300 12008KT P6SM SKC=

USA.gov is the U.S. government's official web portal to all federal, state and local government web resources and services.